sensor_id;sensor_type;location;lat;lon;timestamp;P1;durP1;ratioP1;P2;durP2;ratioP2
4569;SDS011;2297;51.442;6.996;2023-05-07T00:00:50;13.02;;;7.22;;
4569;SDS011;2297;51.442;6.996;2023-05-07T00:03:17;45.53;;;22.17;;
4569;SDS011;2297;51.442;6.996;2023-05-07T00:05:45;8.93;;;5.05;;
4569;SDS011;2297;51.442;6.996;2023-05-07T00:08:13;5.88;;;3.83;;
4569;SDS011;2297;51.442;6.996;2023-05-07T00:10:40;5.82;;;3.42;;
4569;SDS011;2297;51.442;6.996;2023-05-07T00:13:07;6.50;;;3.53;;
4569;SDS011;2297;51.442;6.996;2023-05-07T00:15:33;5.05;;;3.38;;
4569;SDS011;2297;51.442;6.996;2023-05-07T00:18:00;11.45;;;6.50;;
4569;SDS011;2297;51.442;6.996;2023-05-07T00:20:27;45.00;;;24.55;;
4569;SDS011;2297;51.442;6.996;2023-05-07T00:22:55;17.42;;;9.45;;
4569;SDS011;2297;51.442;6.996;2023-05-07T00:25:21;7.18;;;4.50;;
4569;SDS011;2297;51.442;6.996;2023-05-07T00:27:48;5.60;;;4.00;;
4569;SDS011;2297;51.442;6.996;2023-05-07T00:30:15;9.77;;;3.90;;
4569;SDS011;2297;51.442;6.996;2023-05-07T00:32:41;4.40;;;3.30;;
4569;SDS011;2297;51.442;6.996;2023-05-07T00:35:10;5.88;;;3.92;;
4569;SDS011;2297;51.442;6.996;2023-05-07T00:37:37;6.00;;;3.97;;
4569;SDS011;2297;51.442;6.996;2023-05-07T00:40:05;6.05;;;3.63;;
4569;SDS011;2297;51.442;6.996;2023-05-07T00:42:33;7.22;;;4.20;;
4569;SDS011;2297;51.442;6.996;2023-05-07T00:45:00;5.95;;;3.97;;
4569;SDS011;2297;51.442;6.996;2023-05-07T00:47:26;6.25;;;3.85;;
4569;SDS011;2297;51.442;6.996;2023-05-07T00:49:53;6.53;;;4.20;;
4569;SDS011;2297;51.442;6.996;2023-05-07T00:52:20;5.78;;;4.13;;
4569;SDS011;2297;51.442;6.996;2023-05-07T00:54:50;6.75;;;4.22;;
4569;SDS011;2297;51.442;6.996;2023-05-07T00:57:18;7.07;;;4.57;;
4569;SDS011;2297;51.442;6.996;2023-05-07T00:59:46;5.93;;;4.13;;
4569;SDS011;2297;51.442;6.996;2023-05-07T01:02:12;6.32;;;4.20;;
4569;SDS011;2297;51.442;6.996;2023-05-07T01:04:39;6.50;;;4.15;;
4569;SDS011;2297;51.442;6.996;2023-05-07T01:07:06;7.93;;;5.35;;
4569;SDS011;2297;51.442;6.996;2023-05-07T01:09:32;7.63;;;4.82;;
4569;SDS011;2297;51.442;6.996;2023-05-07T01:12:01;7.80;;;5.20;;
4569;SDS011;2297;51.442;6.996;2023-05-07T01:14:30;8.35;;;4.80;;
4569;SDS011;2297;51.442;6.996;2023-05-07T01:16:58;6.22;;;4.60;;
4569;SDS011;2297;51.442;6.996;2023-05-07T01:19:25;7.30;;;4.35;;
4569;SDS011;2297;51.442;6.996;2023-05-07T01:21:52;8.35;;;4.68;;
4569;SDS011;2297;51.442;6.996;2023-05-07T01:24:29;7.18;;;4.80;;
4569;SDS011;2297;51.442;6.996;2023-05-07T01:26:56;9.95;;;5.30;;
4569;SDS011;2297;51.442;6.996;2023-05-07T01:29:23;7.18;;;5.07;;
4569;SDS011;2297;51.442;6.996;2023-05-07T01:31:50;8.75;;;4.82;;
4569;SDS011;2297;51.442;6.996;2023-05-07T01:34:18;8.70;;;5.60;;
4569;SDS011;2297;51.442;6.996;2023-05-07T01:36:47;7.22;;;5.20;;
4569;SDS011;2297;51.442;6.996;2023-05-07T01:39:15;8.05;;;5.60;;
4569;SDS011;2297;51.442;6.996;2023-05-07T01:41:43;7.25;;;5.03;;
4569;SDS011;2297;51.442;6.996;2023-05-07T01:44:12;7.18;;;5.22;;
4569;SDS011;2297;51.442;6.996;2023-05-07T01:46:40;14.40;;;8.30;;
4569;SDS011;2297;51.442;6.996;2023-05-07T01:49:07;40.08;;;22.30;;
4569;SDS011;2297;51.442;6.996;2023-05-07T01:51:34;18.50;;;10.27;;
4569;SDS011;2297;51.442;6.996;2023-05-07T01:54:01;9.38;;;6.13;;
4569;SDS011;2297;51.442;6.996;2023-05-07T01:56:28;8.18;;;5.50;;
4569;SDS011;2297;51.442;6.996;2023-05-07T01:58:56;7.68;;;5.15;;
4569;SDS011;2297;51.442;6.996;2023-05-07T02:01:22;6.90;;;5.18;;
4569;SDS011;2297;51.442;6.996;2023-05-07T02:03:49;7.68;;;5.10;;
4569;SDS011;2297;51.442;6.996;2023-05-07T02:06:16;6.63;;;4.80;;
4569;SDS011;2297;51.442;6.996;2023-05-07T02:08:42;8.02;;;4.97;;
4569;SDS011;2297;51.442;6.996;2023-05-07T02:11:09;5.93;;;4.80;;
4569;SDS011;2297;51.442;6.996;2023-05-07T02:13:35;8.30;;;5.03;;
4569;SDS011;2297;51.442;6.996;2023-05-07T02:16:04;31.90;;;16.40;;
4569;SDS011;2297;51.442;6.996;2023-05-07T02:18:31;12.25;;;7.97;;
4569;SDS011;2297;51.442;6.996;2023-05-07T02:20:58;8.88;;;5.28;;
4569;SDS011;2297;51.442;6.996;2023-05-07T02:23:24;8.32;;;5.38;;
4569;SDS011;2297;51.442;6.996;2023-05-07T02:25:51;7.43;;;4.68;;
4569;SDS011;2297;51.442;6.996;2023-05-07T02:28:18;6.63;;;5.18;;
4569;SDS011;2297;51.442;6.996;2023-05-07T02:30:44;7.68;;;5.43;;
4569;SDS011;2297;51.442;6.996;2023-05-07T02:33:12;7.80;;;4.90;;
4569;SDS011;2297;51.442;6.996;2023-05-07T02:35:39;12.05;;;5.18;;
4569;SDS011;2297;51.442;6.996;2023-05-07T02:38:06;8.38;;;4.80;;
4569;SDS011;2297;51.442;6.996;2023-05-07T02:40:32;7.35;;;5.60;;
4569;SDS011;2297;51.442;6.996;2023-05-07T02:43:03;8.35;;;5.13;;
4569;SDS011;2297;51.442;6.996;2023-05-07T02:45:30;10.57;;;5.60;;
4569;SDS011;2297;51.442;6.996;2023-05-07T02:47:57;6.50;;;4.97;;
4569;SDS011;2297;51.442;6.996;2023-05-07T02:50:24;7.65;;;5.15;;
4569;SDS011;2297;51.442;6.996;2023-05-07T02:52:52;9.00;;;5.57;;
4569;SDS011;2297;51.442;6.996;2023-05-07T02:55:18;8.85;;;5.53;;
4569;SDS011;2297;51.442;6.996;2023-05-07T02:57:45;6.18;;;4.57;;
4569;SDS011;2297;51.442;6.996;2023-05-07T03:00:12;8.23;;;5.45;;
4569;SDS011;2297;51.442;6.996;2023-05-07T03:02:40;9.35;;;5.88;;
4569;SDS011;2297;51.442;6.996;2023-05-07T03:05:07;87.57;;;39.38;;
4569;SDS011;2297;51.442;6.996;2023-05-07T03:07:35;64.50;;;32.55;;
4569;SDS011;2297;51.442;6.996;2023-05-07T03:10:03;18.83;;;10.18;;
4569;SDS011;2297;51.442;6.996;2023-05-07T03:12:30;11.55;;;5.78;;
4569;SDS011;2297;51.442;6.996;2023-05-07T03:14:57;7.93;;;5.80;;
4569;SDS011;2297;51.442;6.996;2023-05-07T03:17:23;8.32;;;5.00;;
4569;SDS011;2297;51.442;6.996;2023-05-07T03:19:50;9.38;;;5.75;;
4569;SDS011;2297;51.442;6.996;2023-05-07T03:22:16;6.47;;;5.38;;
4569;SDS011;2297;51.442;6.996;2023-05-07T03:24:44;8.77;;;5.35;;
4569;SDS011;2297;51.442;6.996;2023-05-07T03:27:11;7.07;;;5.25;;
4569;SDS011;2297;51.442;6.996;2023-05-07T03:29:38;8.68;;;6.15;;
4569;SDS011;2297;51.442;6.996;2023-05-07T03:32:04;8.60;;;5.63;;
4569;SDS011;2297;51.442;6.996;2023-05-07T03:34:31;8.93;;;5.90;;
4569;SDS011;2297;51.442;6.996;2023-05-07T03:36:58;7.20;;;5.35;;
4569;SDS011;2297;51.442;6.996;2023-05-07T03:39:25;7.82;;;5.43;;
4569;SDS011;2297;51.442;6.996;2023-05-07T03:41:52;7.35;;;5.72;;
4569;SDS011;2297;51.442;6.996;2023-05-07T03:44:19;8.75;;;5.80;;
4569;SDS011;2297;51.442;6.996;2023-05-07T03:46:46;8.85;;;5.30;;
4569;SDS011;2297;51.442;6.996;2023-05-07T03:49:12;10.55;;;5.78;;
4569;SDS011;2297;51.442;6.996;2023-05-07T03:51:39;7.40;;;5.70;;
4569;SDS011;2297;51.442;6.996;2023-05-07T03:54:06;7.18;;;5.65;;
4569;SDS011;2297;51.442;6.996;2023-05-07T03:56:32;9.07;;;6.05;;
4569;SDS011;2297;51.442;6.996;2023-05-07T03:59:00;9.43;;;6.30;;
4569;SDS011;2297;51.442;6.996;2023-05-07T04:01:27;9.30;;;6.40;;
4569;SDS011;2297;51.442;6.996;2023-05-07T04:03:54;14.45;;;7.28;;
4569;SDS011;2297;51.442;6.996;2023-05-07T04:06:22;9.05;;;6.63;;
4569;SDS011;2297;51.442;6.996;2023-05-07T04:08:49;9.32;;;6.70;;
4569;SDS011;2297;51.442;6.996;2023-05-07T04:11:15;9.20;;;6.20;;
4569;SDS011;2297;51.442;6.996;2023-05-07T04:13:42;14.73;;;6.68;;
4569;SDS011;2297;51.442;6.996;2023-05-07T04:16:10;8.10;;;6.30;;
4569;SDS011;2297;51.442;6.996;2023-05-07T04:18:37;10.13;;;6.68;;
4569;SDS011;2297;51.442;6.996;2023-05-07T04:21:03;8.85;;;7.03;;
4569;SDS011;2297;51.442;6.996;2023-05-07T04:23:30;9.88;;;7.28;;
4569;SDS011;2297;51.442;6.996;2023-05-07T04:25:57;11.98;;;8.85;;
4569;SDS011;2297;51.442;6.996;2023-05-07T04:28:23;10.73;;;8.50;;
4569;SDS011;2297;51.442;6.996;2023-05-07T04:30:50;14.70;;;9.48;;
4569;SDS011;2297;51.442;6.996;2023-05-07T04:33:18;15.27;;;10.05;;
4569;SDS011;2297;51.442;6.996;2023-05-07T04:35:45;14.30;;;10.05;;
4569;SDS011;2297;51.442;6.996;2023-05-07T04:38:11;16.50;;;9.98;;
4569;SDS011;2297;51.442;6.996;2023-05-07T04:40:38;13.90;;;9.75;;
4569;SDS011;2297;51.442;6.996;2023-05-07T04:43:05;12.50;;;9.27;;
4569;SDS011;2297;51.442;6.996;2023-05-07T04:45:32;16.63;;;10.57;;
4569;SDS011;2297;51.442;6.996;2023-05-07T04:47:59;13.07;;;9.40;;
4569;SDS011;2297;51.442;6.996;2023-05-07T04:50:27;15.23;;;10.75;;
4569;SDS011;2297;51.442;6.996;2023-05-07T04:52:53;14.20;;;9.80;;
4569;SDS011;2297;51.442;6.996;2023-05-07T04:55:20;13.80;;;9.18;;
4569;SDS011;2297;51.442;6.996;2023-05-07T04:57:46;14.40;;;9.43;;
4569;SDS011;2297;51.442;6.996;2023-05-07T05:00:13;14.50;;;10.27;;
4569;SDS011;2297;51.442;6.996;2023-05-07T05:02:41;15.35;;;10.35;;
4569;SDS011;2297;51.442;6.996;2023-05-07T05:05:08;15.70;;;10.07;;
4569;SDS011;2297;51.442;6.996;2023-05-07T05:07:36;15.52;;;10.50;;
4569;SDS011;2297;51.442;6.996;2023-05-07T05:10:04;19.20;;;10.70;;
4569;SDS011;2297;51.442;6.996;2023-05-07T05:12:32;14.68;;;11.15;;
4569;SDS011;2297;51.442;6.996;2023-05-07T05:14:58;16.75;;;11.10;;
4569;SDS011;2297;51.442;6.996;2023-05-07T05:17:25;15.27;;;10.32;;
4569;SDS011;2297;51.442;6.996;2023-05-07T05:19:51;15.70;;;10.25;;
4569;SDS011;2297;51.442;6.996;2023-05-07T05:22:18;15.18;;;10.35;;
4569;SDS011;2297;51.442;6.996;2023-05-07T05:24:46;12.85;;;9.45;;
4569;SDS011;2297;51.442;6.996;2023-05-07T05:27:13;12.85;;;9.73;;
4569;SDS011;2297;51.442;6.996;2023-05-07T05:29:39;14.32;;;9.48;;
4569;SDS011;2297;51.442;6.996;2023-05-07T05:32:06;12.82;;;9.38;;
4569;SDS011;2297;51.442;6.996;2023-05-07T05:34:32;13.85;;;9.55;;
4569;SDS011;2297;51.442;6.996;2023-05-07T05:36:59;13.63;;;9.68;;
4569;SDS011;2297;51.442;6.996;2023-05-07T05:39:26;14.07;;;10.40;;
4569;SDS011;2297;51.442;6.996;2023-05-07T05:41:54;10.60;;;8.65;;
4569;SDS011;2297;51.442;6.996;2023-05-07T05:44:20;11.85;;;8.48;;
4569;SDS011;2297;51.442;6.996;2023-05-07T05:46:47;12.57;;;8.38;;
4569;SDS011;2297;51.442;6.996;2023-05-07T05:49:14;12.48;;;8.23;;
4569;SDS011;2297;51.442;6.996;2023-05-07T05:51:41;13.25;;;8.40;;
4569;SDS011;2297;51.442;6.996;2023-05-07T05:54:07;9.98;;;7.88;;
4569;SDS011;2297;51.442;6.996;2023-05-07T05:56:34;10.30;;;7.55;;
4569;SDS011;2297;51.442;6.996;2023-05-07T05:59:02;11.05;;;7.75;;
4569;SDS011;2297;51.442;6.996;2023-05-07T06:01:29;9.57;;;7.45;;
4569;SDS011;2297;51.442;6.996;2023-05-07T06:03:55;9.82;;;7.60;;
4569;SDS011;2297;51.442;6.996;2023-05-07T06:06:22;7.97;;;6.57;;
4569;SDS011;2297;51.442;6.996;2023-05-07T06:08:49;8.90;;;6.80;;
4569;SDS011;2297;51.442;6.996;2023-05-07T06:11:15;9.70;;;6.45;;
4569;SDS011;2297;51.442;6.996;2023-05-07T06:13:42;10.10;;;5.93;;
4569;SDS011;2297;51.442;6.996;2023-05-07T06:16:10;7.18;;;5.47;;
4569;SDS011;2297;51.442;6.996;2023-05-07T06:18:36;8.25;;;6.07;;
4569;SDS011;2297;51.442;6.996;2023-05-07T06:21:03;7.45;;;5.72;;
4569;SDS011;2297;51.442;6.996;2023-05-07T06:23:30;7.57;;;5.65;;
4569;SDS011;2297;51.442;6.996;2023-05-07T06:25:57;7.53;;;5.75;;
4569;SDS011;2297;51.442;6.996;2023-05-07T06:28:23;8.05;;;5.20;;
4569;SDS011;2297;51.442;6.996;2023-05-07T06:30:50;7.50;;;5.57;;
4569;SDS011;2297;51.442;6.996;2023-05-07T06:33:18;10.13;;;5.50;;
4569;SDS011;2297;51.442;6.996;2023-05-07T06:35:45;8.65;;;5.10;;
4569;SDS011;2297;51.442;6.996;2023-05-07T06:38:12;9.82;;;5.15;;
4569;SDS011;2297;51.442;6.996;2023-05-07T06:40:38;6.70;;;4.78;;
4569;SDS011;2297;51.442;6.996;2023-05-07T06:43:05;7.45;;;5.20;;
4569;SDS011;2297;51.442;6.996;2023-05-07T06:45:32;6.15;;;4.57;;
4569;SDS011;2297;51.442;6.996;2023-05-07T06:47:58;6.28;;;4.70;;
4569;SDS011;2297;51.442;6.996;2023-05-07T06:50:26;6.82;;;4.60;;
4569;SDS011;2297;51.442;6.996;2023-05-07T06:52:53;6.18;;;4.20;;
4569;SDS011;2297;51.442;6.996;2023-05-07T06:55:19;7.32;;;4.43;;
4569;SDS011;2297;51.442;6.996;2023-05-07T06:57:46;6.10;;;4.07;;
4569;SDS011;2297;51.442;6.996;2023-05-07T07:00:13;7.05;;;4.45;;
4569;SDS011;2297;51.442;6.996;2023-05-07T07:02:40;5.30;;;3.70;;
4569;SDS011;2297;51.442;6.996;2023-05-07T07:05:07;6.65;;;3.78;;
4569;SDS011;2297;51.442;6.996;2023-05-07T07:07:35;11.93;;;5.38;;
4569;SDS011;2297;51.442;6.996;2023-05-07T07:10:02;8.30;;;4.40;;
4569;SDS011;2297;51.442;6.996;2023-05-07T07:12:29;5.57;;;3.63;;
4569;SDS011;2297;51.442;6.996;2023-05-07T07:14:56;8.23;;;4.45;;
4569;SDS011;2297;51.442;6.996;2023-05-07T07:17:23;8.95;;;4.05;;
4569;SDS011;2297;51.442;6.996;2023-05-07T07:19:49;13.43;;;4.88;;
4569;SDS011;2297;51.442;6.996;2023-05-07T07:22:16;8.10;;;5.15;;
4569;SDS011;2297;51.442;6.996;2023-05-07T07:24:44;7.30;;;4.18;;
4569;SDS011;2297;51.442;6.996;2023-05-07T07:30:02;5.97;;;3.80;;
4569;SDS011;2297;51.442;6.996;2023-05-07T07:32:29;5.63;;;3.50;;
4569;SDS011;2297;51.442;6.996;2023-05-07T07:34:57;6.35;;;3.58;;
4569;SDS011;2297;51.442;6.996;2023-05-07T07:37:24;5.68;;;3.65;;
4569;SDS011;2297;51.442;6.996;2023-05-07T07:39:52;6.90;;;3.65;;
4569;SDS011;2297;51.442;6.996;2023-05-07T07:42:18;4.95;;;3.38;;
4569;SDS011;2297;51.442;6.996;2023-05-07T07:44:45;5.95;;;3.50;;
4569;SDS011;2297;51.442;6.996;2023-05-07T07:47:11;7.03;;;3.38;;
4569;SDS011;2297;51.442;6.996;2023-05-07T07:49:38;4.90;;;3.38;;
4569;SDS011;2297;51.442;6.996;2023-05-07T07:52:05;5.25;;;3.58;;
4569;SDS011;2297;51.442;6.996;2023-05-07T07:54:31;3.92;;;2.92;;
4569;SDS011;2297;51.442;6.996;2023-05-07T07:56:59;4.82;;;3.40;;
4569;SDS011;2297;51.442;6.996;2023-05-07T07:59:26;5.97;;;3.00;;
4569;SDS011;2297;51.442;6.996;2023-05-07T08:01:53;9.43;;;3.40;;
4569;SDS011;2297;51.442;6.996;2023-05-07T08:04:21;3.42;;;2.58;;
4569;SDS011;2297;51.442;6.996;2023-05-07T08:06:48;3.97;;;2.72;;
4569;SDS011;2297;51.442;6.996;2023-05-07T08:09:15;5.00;;;3.00;;
4569;SDS011;2297;51.442;6.996;2023-05-07T08:11:42;3.70;;;2.67;;
4569;SDS011;2297;51.442;6.996;2023-05-07T08:14:10;3.65;;;2.78;;
4569;SDS011;2297;51.442;6.996;2023-05-07T08:16:37;4.88;;;2.88;;
4569;SDS011;2297;51.442;6.996;2023-05-07T08:19:03;6.13;;;2.50;;
4569;SDS011;2297;51.442;6.996;2023-05-07T08:21:30;4.13;;;2.97;;
4569;SDS011;2297;51.442;6.996;2023-05-07T08:23:57;4.78;;;2.90;;
4569;SDS011;2297;51.442;6.996;2023-05-07T08:26:24;5.75;;;2.58;;
4569;SDS011;2297;51.442;6.996;2023-05-07T08:28:51;3.95;;;2.47;;
4569;SDS011;2297;51.442;6.996;2023-05-07T08:31:19;3.38;;;2.40;;
4569;SDS011;2297;51.442;6.996;2023-05-07T08:33:45;3.30;;;2.30;;
4569;SDS011;2297;51.442;6.996;2023-05-07T08:36:12;3.40;;;2.40;;
4569;SDS011;2297;51.442;6.996;2023-05-07T08:38:38;4.10;;;2.28;;
4569;SDS011;2297;51.442;6.996;2023-05-07T08:41:09;5.10;;;2.60;;
4569;SDS011;2297;51.442;6.996;2023-05-07T08:43:36;5.43;;;2.80;;
4569;SDS011;2297;51.442;6.996;2023-05-07T08:46:06;3.38;;;2.40;;
4569;SDS011;2297;51.442;6.996;2023-05-07T08:48:37;3.10;;;2.10;;
4569;SDS011;2297;51.442;6.996;2023-05-07T08:51:04;5.25;;;2.33;;
4569;SDS011;2297;51.442;6.996;2023-05-07T08:53:31;4.30;;;2.63;;
4569;SDS011;2297;51.442;6.996;2023-05-07T08:55:59;3.42;;;2.25;;
4569;SDS011;2297;51.442;6.996;2023-05-07T08:58:25;3.50;;;2.40;;
4569;SDS011;2297;51.442;6.996;2023-05-07T09:00:52;4.90;;;2.40;;
4569;SDS011;2297;51.442;6.996;2023-05-07T09:03:20;3.03;;;2.17;;
4569;SDS011;2297;51.442;6.996;2023-05-07T09:05:48;3.15;;;2.30;;
4569;SDS011;2297;51.442;6.996;2023-05-07T09:08:15;4.68;;;2.78;;
4569;SDS011;2297;51.442;6.996;2023-05-07T09:10:42;2.92;;;2.22;;
4569;SDS011;2297;51.442;6.996;2023-05-07T09:13:08;4.85;;;2.55;;
4569;SDS011;2297;51.442;6.996;2023-05-07T09:15:38;3.47;;;2.30;;
4569;SDS011;2297;51.442;6.996;2023-05-07T09:18:04;6.10;;;3.05;;
4569;SDS011;2297;51.442;6.996;2023-05-07T09:20:31;4.80;;;2.42;;
4569;SDS011;2297;51.442;6.996;2023-05-07T09:22:59;3.67;;;2.30;;
4569;SDS011;2297;51.442;6.996;2023-05-07T09:25:29;3.75;;;2.40;;
4569;SDS011;2297;51.442;6.996;2023-05-07T09:27:56;4.72;;;2.42;;
4569;SDS011;2297;51.442;6.996;2023-05-07T09:30:26;4.68;;;1.92;;
4569;SDS011;2297;51.442;6.996;2023-05-07T09:32:53;3.15;;;2.40;;
4569;SDS011;2297;51.442;6.996;2023-05-07T09:35:20;3.63;;;2.30;;
4569;SDS011;2297;51.442;6.996;2023-05-07T09:37:49;3.45;;;2.35;;
4569;SDS011;2297;51.442;6.996;2023-05-07T09:40:24;2.78;;;2.47;;
4569;SDS011;2297;51.442;6.996;2023-05-07T09:42:51;5.40;;;2.60;;
4569;SDS011;2297;51.442;6.996;2023-05-07T09:45:21;4.10;;;2.65;;
4569;SDS011;2297;51.442;6.996;2023-05-07T09:47:49;6.00;;;2.53;;
4569;SDS011;2297;51.442;6.996;2023-05-07T09:50:19;5.55;;;2.78;;
4569;SDS011;2297;51.442;6.996;2023-05-07T09:52:52;3.88;;;2.80;;
4569;SDS011;2297;51.442;6.996;2023-05-07T09:55:20;4.13;;;2.63;;
4569;SDS011;2297;51.442;6.996;2023-05-07T09:57:48;3.25;;;2.55;;
4569;SDS011;2297;51.442;6.996;2023-05-07T10:00:17;3.03;;;2.17;;
4569;SDS011;2297;51.442;6.996;2023-05-07T10:02:46;4.15;;;2.58;;
4569;SDS011;2297;51.442;6.996;2023-05-07T10:05:15;3.13;;;2.17;;
4569;SDS011;2297;51.442;6.996;2023-05-07T10:07:41;4.85;;;2.08;;
4569;SDS011;2297;51.442;6.996;2023-05-07T10:10:09;4.20;;;2.17;;
4569;SDS011;2297;51.442;6.996;2023-05-07T10:12:36;4.18;;;2.55;;
4569;SDS011;2297;51.442;6.996;2023-05-07T10:15:07;3.40;;;2.35;;
4569;SDS011;2297;51.442;6.996;2023-05-07T10:17:35;4.43;;;2.38;;
4569;SDS011;2297;51.442;6.996;2023-05-07T10:20:02;3.63;;;2.53;;
4569;SDS011;2297;51.442;6.996;2023-05-07T10:22:30;4.15;;;2.58;;
4569;SDS011;2297;51.442;6.996;2023-05-07T10:25:03;6.63;;;3.10;;
4569;SDS011;2297;51.442;6.996;2023-05-07T10:27:36;3.55;;;2.63;;
4569;SDS011;2297;51.442;6.996;2023-05-07T10:30:06;2.50;;;2.03;;
4569;SDS011;2297;51.442;6.996;2023-05-07T10:32:42;4.78;;;2.63;;
4569;SDS011;2297;51.442;6.996;2023-05-07T10:35:14;3.35;;;2.30;;
4569;SDS011;2297;51.442;6.996;2023-05-07T10:40:14;3.55;;;2.10;;
4569;SDS011;2297;51.442;6.996;2023-05-07T10:45:27;5.38;;;2.40;;
4569;SDS011;2297;51.442;6.996;2023-05-07T10:50:45;2.83;;;2.22;;
4569;SDS011;2297;51.442;6.996;2023-05-07T10:53:21;5.60;;;2.63;;
4569;SDS011;2297;51.442;6.996;2023-05-07T10:58:51;3.20;;;2.47;;
4569;SDS011;2297;51.442;6.996;2023-05-07T11:01:26;4.38;;;2.50;;
4569;SDS011;2297;51.442;6.996;2023-05-07T11:04:17;3.40;;;2.42;;
4569;SDS011;2297;51.442;6.996;2023-05-07T11:10:02;4.50;;;2.85;;
4569;SDS011;2297;51.442;6.996;2023-05-07T11:18:01;5.47;;;3.50;;
4569;SDS011;2297;51.442;6.996;2023-05-07T11:26:23;3.38;;;2.70;;
4569;SDS011;2297;51.442;6.996;2023-05-07T11:28:51;4.15;;;2.53;;
4569;SDS011;2297;51.442;6.996;2023-05-07T11:31:22;3.75;;;2.75;;
4569;SDS011;2297;51.442;6.996;2023-05-07T11:33:52;5.35;;;2.83;;
4569;SDS011;2297;51.442;6.996;2023-05-07T11:36:20;3.83;;;3.10;;
4569;SDS011;2297;51.442;6.996;2023-05-07T11:38:48;3.53;;;2.58;;
4569;SDS011;2297;51.442;6.996;2023-05-07T11:41:15;4.03;;;2.80;;
4569;SDS011;2297;51.442;6.996;2023-05-07T11:43:55;3.72;;;2.65;;
4569;SDS011;2297;51.442;6.996;2023-05-07T11:46:23;2.58;;;2.35;;
4569;SDS011;2297;51.442;6.996;2023-05-07T11:48:50;6.10;;;3.03;;
4569;SDS011;2297;51.442;6.996;2023-05-07T11:51:18;4.72;;;2.80;;
4569;SDS011;2297;51.442;6.996;2023-05-07T11:53:46;4.82;;;2.72;;
4569;SDS011;2297;51.442;6.996;2023-05-07T11:56:13;6.13;;;2.75;;
4569;SDS011;2297;51.442;6.996;2023-05-07T11:58:40;6.35;;;3.00;;
4569;SDS011;2297;51.442;6.996;2023-05-07T12:01:08;4.20;;;2.67;;
4569;SDS011;2297;51.442;6.996;2023-05-07T12:03:36;4.10;;;3.17;;
4569;SDS011;2297;51.442;6.996;2023-05-07T12:06:06;5.82;;;3.40;;
4569;SDS011;2297;51.442;6.996;2023-05-07T12:08:33;4.75;;;3.05;;
4569;SDS011;2297;51.442;6.996;2023-05-07T12:11:02;4.90;;;2.78;;
4569;SDS011;2297;51.442;6.996;2023-05-07T12:13:29;3.88;;;3.05;;
4569;SDS011;2297;51.442;6.996;2023-05-07T12:15:56;6.60;;;3.13;;
4569;SDS011;2297;51.442;6.996;2023-05-07T12:18:23;3.58;;;3.03;;
4569;SDS011;2297;51.442;6.996;2023-05-07T12:20:50;3.60;;;2.95;;
4569;SDS011;2297;51.442;6.996;2023-05-07T12:23:19;10.13;;;3.20;;
4569;SDS011;2297;51.442;6.996;2023-05-07T12:25:46;5.93;;;3.25;;
4569;SDS011;2297;51.442;6.996;2023-05-07T12:28:13;4.75;;;2.70;;
4569;SDS011;2297;51.442;6.996;2023-05-07T12:30:42;6.03;;;3.67;;
4569;SDS011;2297;51.442;6.996;2023-05-07T12:33:09;5.78;;;3.80;;
4569;SDS011;2297;51.442;6.996;2023-05-07T12:35:37;5.10;;;4.00;;
4569;SDS011;2297;51.442;6.996;2023-05-07T12:38:07;4.47;;;3.42;;
4569;SDS011;2297;51.442;6.996;2023-05-07T12:40:39;5.72;;;3.45;;
4569;SDS011;2297;51.442;6.996;2023-05-07T12:43:07;6.60;;;3.60;;
4569;SDS011;2297;51.442;6.996;2023-05-07T12:45:36;4.25;;;3.17;;
4569;SDS011;2297;51.442;6.996;2023-05-07T12:48:03;4.82;;;3.65;;
4569;SDS011;2297;51.442;6.996;2023-05-07T12:50:31;5.25;;;3.50;;
4569;SDS011;2297;51.442;6.996;2023-05-07T12:52:58;4.28;;;3.40;;
4569;SDS011;2297;51.442;6.996;2023-05-07T12:55:28;5.53;;;3.30;;
4569;SDS011;2297;51.442;6.996;2023-05-07T12:57:56;4.85;;;3.70;;
4569;SDS011;2297;51.442;6.996;2023-05-07T13:00:33;9.80;;;4.20;;
4569;SDS011;2297;51.442;6.996;2023-05-07T13:03:03;6.32;;;4.07;;
4569;SDS011;2297;51.442;6.996;2023-05-07T13:05:30;6.22;;;3.97;;
4569;SDS011;2297;51.442;6.996;2023-05-07T13:07:57;5.72;;;4.00;;
4569;SDS011;2297;51.442;6.996;2023-05-07T13:10:25;8.63;;;4.50;;
4569;SDS011;2297;51.442;6.996;2023-05-07T13:12:52;9.93;;;4.57;;
4569;SDS011;2297;51.442;6.996;2023-05-07T13:15:20;6.38;;;4.30;;
4569;SDS011;2297;51.442;6.996;2023-05-07T13:17:48;7.10;;;4.25;;
4569;SDS011;2297;51.442;6.996;2023-05-07T13:20:15;5.53;;;4.15;;
4569;SDS011;2297;51.442;6.996;2023-05-07T13:22:42;4.88;;;4.38;;
4569;SDS011;2297;51.442;6.996;2023-05-07T13:25:08;5.68;;;4.03;;
4569;SDS011;2297;51.442;6.996;2023-05-07T13:27:35;7.60;;;4.95;;
4569;SDS011;2297;51.442;6.996;2023-05-07T13:30:02;6.90;;;5.10;;
4569;SDS011;2297;51.442;6.996;2023-05-07T13:32:31;9.38;;;5.30;;
4569;SDS011;2297;51.442;6.996;2023-05-07T13:34:58;7.18;;;4.80;;
4569;SDS011;2297;51.442;6.996;2023-05-07T13:37:25;6.13;;;4.88;;
4569;SDS011;2297;51.442;6.996;2023-05-07T13:39:51;6.93;;;5.15;;
4569;SDS011;2297;51.442;6.996;2023-05-07T13:42:18;6.88;;;4.97;;
4569;SDS011;2297;51.442;6.996;2023-05-07T13:44:45;6.53;;;5.05;;
4569;SDS011;2297;51.442;6.996;2023-05-07T13:47:11;5.57;;;4.78;;
4569;SDS011;2297;51.442;6.996;2023-05-07T13:49:39;6.70;;;5.10;;
4569;SDS011;2297;51.442;6.996;2023-05-07T13:52:06;7.25;;;5.20;;
4569;SDS011;2297;51.442;6.996;2023-05-07T13:54:32;8.00;;;4.53;;
4569;SDS011;2297;51.442;6.996;2023-05-07T13:56:59;6.45;;;4.43;;
4569;SDS011;2297;51.442;6.996;2023-05-07T13:59:26;7.93;;;5.45;;
4569;SDS011;2297;51.442;6.996;2023-05-07T14:01:53;7.90;;;4.90;;
4569;SDS011;2297;51.442;6.996;2023-05-07T14:04:20;9.48;;;5.80;;
4569;SDS011;2297;51.442;6.996;2023-05-07T14:06:48;6.80;;;5.00;;
4569;SDS011;2297;51.442;6.996;2023-05-07T14:09:15;9.45;;;5.43;;
4569;SDS011;2297;51.442;6.996;2023-05-07T14:11:41;5.78;;;4.60;;
4569;SDS011;2297;51.442;6.996;2023-05-07T14:14:08;8.90;;;5.65;;
4569;SDS011;2297;51.442;6.996;2023-05-07T14:16:35;9.02;;;6.40;;
4569;SDS011;2297;51.442;6.996;2023-05-07T14:19:02;12.63;;;7.00;;
4569;SDS011;2297;51.442;6.996;2023-05-07T14:21:29;8.70;;;6.10;;
4569;SDS011;2297;51.442;6.996;2023-05-07T14:23:57;11.15;;;6.45;;
4569;SDS011;2297;51.442;6.996;2023-05-07T14:26:25;8.80;;;6.45;;
4569;SDS011;2297;51.442;6.996;2023-05-07T14:28:52;11.75;;;7.65;;
4569;SDS011;2297;51.442;6.996;2023-05-07T14:31:20;11.98;;;7.00;;
4569;SDS011;2297;51.442;6.996;2023-05-07T14:33:47;9.35;;;6.75;;
4569;SDS011;2297;51.442;6.996;2023-05-07T14:36:14;11.10;;;6.43;;
4569;SDS011;2297;51.442;6.996;2023-05-07T14:38:41;9.60;;;7.05;;
4569;SDS011;2297;51.442;6.996;2023-05-07T14:41:10;9.00;;;6.50;;
4569;SDS011;2297;51.442;6.996;2023-05-07T14:43:36;10.27;;;7.07;;
4569;SDS011;2297;51.442;6.996;2023-05-07T14:46:03;12.10;;;7.07;;
4569;SDS011;2297;51.442;6.996;2023-05-07T14:48:29;9.40;;;6.43;;
4569;SDS011;2297;51.442;6.996;2023-05-07T14:50:56;11.70;;;7.18;;
4569;SDS011;2297;51.442;6.996;2023-05-07T14:53:23;10.38;;;7.07;;
4569;SDS011;2297;51.442;6.996;2023-05-07T14:55:50;10.27;;;7.45;;
4569;SDS011;2297;51.442;6.996;2023-05-07T14:58:18;11.38;;;7.18;;
4569;SDS011;2297;51.442;6.996;2023-05-07T15:00:45;11.68;;;7.63;;
4569;SDS011;2297;51.442;6.996;2023-05-07T15:03:12;12.73;;;6.80;;
4569;SDS011;2297;51.442;6.996;2023-05-07T15:05:40;9.10;;;6.88;;
4569;SDS011;2297;51.442;6.996;2023-05-07T15:08:07;8.43;;;6.88;;
4569;SDS011;2297;51.442;6.996;2023-05-07T15:10:34;11.68;;;7.70;;
4569;SDS011;2297;51.442;6.996;2023-05-07T15:13:05;12.02;;;8.07;;
4569;SDS011;2297;51.442;6.996;2023-05-07T15:15:34;11.45;;;7.40;;
4569;SDS011;2297;51.442;6.996;2023-05-07T15:18:00;10.48;;;7.63;;
4569;SDS011;2297;51.442;6.996;2023-05-07T15:20:27;10.45;;;7.25;;
4569;SDS011;2297;51.442;6.996;2023-05-07T15:22:54;10.73;;;7.70;;
4569;SDS011;2297;51.442;6.996;2023-05-07T15:25:21;32.20;;;16.33;;
4569;SDS011;2297;51.442;6.996;2023-05-07T15:27:48;47.85;;;27.30;;
4569;SDS011;2297;51.442;6.996;2023-05-07T15:30:27;19.08;;;10.70;;
4569;SDS011;2297;51.442;6.996;2023-05-07T15:32:55;11.90;;;8.30;;
4569;SDS011;2297;51.442;6.996;2023-05-07T15:35:22;12.23;;;8.68;;
4569;SDS011;2297;51.442;6.996;2023-05-07T15:37:50;12.00;;;8.40;;
4569;SDS011;2297;51.442;6.996;2023-05-07T15:40:17;11.48;;;8.25;;